Time;durP1;ratioP1;P1;durP2;ratioP2;P2;SDS_P1;SDS_P2;PMS_P1;PMS_P2;Temp;Humidity;BMP_temperature;BMP_pressure;BME280_temperature;BME280_humidity;BME280_pressure;Samples;Min_cycle;Max_cycle;Signal;HPM_P1;HPM_P2
2022/09/14 00:02:04;;;;;;;7.88;1.98;;;19.10;63.50;;;;;;5063180;28;20395;-68
2022/09/14 00:04:30;;;;;;;7.60;1.83;;;19.10;63.50;;;;;;5078333;28;20028;-69
2022/09/14 00:06:55;;;;;;;6.93;1.67;;;19.20;63.60;;;;;;5086801;28;20404;-69
2022/09/14 00:09:23;;;;;;;6.43;1.52;;;19.20;63.50;;;;;;5097862;28;20028;-68
2022/09/14 00:11:49;;;;;;;5.78;1.50;;;19.10;63.40;;;;;;5095188;28;20028;-68
2022/09/14 00:14:16;;;;;;;5.18;1.40;;;19.10;63.40;;;;;;5096913;28;20040;-68
2022/09/14 00:16:43;;;;;;;5.63;1.42;;;19.10;63.30;;;;;;5083224;28;20032;-68
2022/09/14 00:19:35;;;;;;;6.40;1.60;;;19.10;63.30;;;;;;5062483;28;20040;-68
2022/09/14 00:22:00;;;;;;;6.97;1.60;;;19.20;63.40;;;;;;5075502;28;20071;-68
2022/09/14 00:24:29;;;;;;;6.85;1.55;;;19.10;63.50;;;;;;5096649;28;20024;-69
2022/09/14 00:26:55;;;;;;;5.53;1.58;;;19.10;63.50;;;;;;5097289;28;20024;-69
2022/09/14 00:29:22;;;;;;;5.28;1.75;;;19.10;63.60;;;;;;5076187;28;20487;-68
2022/09/14 00:31:48;;;;;;;6.63;2.20;;;19.10;63.70;;;;;;5095061;28;20364;-68
2022/09/14 00:34:16;;;;;;;4.53;1.65;;;19.10;63.80;;;;;;5095303;28;20023;-68
2022/09/14 00:36:45;;;;;;;4.95;1.50;;;19.10;63.80;;;;;;5096311;28;20036;-69
2022/09/14 00:39:11;;;;;;;6.60;1.45;;;19.10;63.80;;;;;;5078815;28;20036;-68
2022/09/14 00:41:38;;;;;;;6.63;1.70;;;19.10;63.80;;;;;;5093799;28;20081;-68
2022/09/14 00:44:10;;;;;;;5.25;1.40;;;19.00;63.80;;;;;;5077174;28;20054;-67
2022/09/14 00:46:41;;;;;;;6.47;1.50;;;19.00;63.80;;;;;;5096503;28;20028;-67
2022/09/14 00:49:26;;;;;;;6.75;1.58;;;19.00;63.80;;;;;;5074641;28;20036;-68
2022/09/14 00:52:07;;;;;;;8.45;1.67;;;19.00;63.80;;;;;;5097075;28;20055;-68
2022/09/14 00:54:34;;;;;;;5.35;1.45;;;19.00;63.80;;;;;;5073086;28;20074;-68
2022/09/14 00:57:02;;;;;;;4.20;1.50;;;19.00;63.80;;;;;;5087332;28;20383;-67
2022/09/14 00:59:31;;;;;;;7.53;1.67;;;19.00;63.80;;;;;;5095950;28;20028;-68
2022/09/14 01:01:57;;;;;;;5.38;1.40;;;19.00;63.70;;;;;;5096277;28;20127;-68
2022/09/14 01:04:23;;;;;;;6.15;1.40;;;19.00;63.60;;;;;;5077837;28;20055;-68
2022/09/14 01:07:09;;;;;;;7.90;1.70;;;19.00;63.50;;;;;;5086429;28;20077;-68
2022/09/14 01:10:03;;;;;;;5.45;1.30;;;19.00;63.50;;;;;;5096531;28;20024;-68
2022/09/14 01:12:38;;;;;;;7.80;1.50;;;19.00;63.60;;;;;;5087450;28;20404;-68
2022/09/14 01:15:16;;;;;;;4.03;1.30;;;18.90;63.60;;;;;;5072777;28;20045;-69
2022/09/14 01:17:44;;;;;;;5.72;1.17;;;18.90;63.40;;;;;;5083904;28;20097;-68
2022/09/14 01:20:33;;;;;;;6.93;1.48;;;18.90;63.50;;;;;;5096259;28;20364;-68
2022/09/14 01:23:05;;;;;;;5.53;1.52;;;18.90;63.40;;;;;;5095302;28;20028;-68
2022/09/14 01:25:33;;;;;;;4.70;1.33;;;18.90;63.40;;;;;;5074547;28;20437;-67
2022/09/14 01:28:04;;;;;;;5.57;1.45;;;18.90;63.40;;;;;;5091624;28;20111;-68
2022/09/14 01:30:32;;;;;;;7.93;1.80;;;18.90;63.40;;;;;;5066575;28;20398;-68
2022/09/14 01:33:25;;;;;;;7.03;1.60;;;18.90;63.40;;;;;;5095307;28;20048;-67
2022/09/14 01:35:56;;;;;;;4.38;1.15;;;18.90;63.50;;;;;;5086193;28;20036;-67
2022/09/14 01:38:29;;;;;;;4.22;1.23;;;18.80;63.40;;;;;;5078168;28;20024;-68
2022/09/14 01:40:57;;;;;;;5.40;1.40;;;18.80;63.40;;;;;;5095611;28;20067;-67
2022/09/14 01:43:39;;;;;;;6.78;1.60;;;18.80;63.40;;;;;;5088737;28;20388;-68
2022/09/14 01:46:19;;;;;;;6.15;1.38;;;18.80;63.20;;;;;;5056710;28;20031;-68
2022/09/14 01:49:01;;;;;;;4.05;1.42;;;18.80;63.20;;;;;;5095944;28;20035;-68
2022/09/14 01:51:38;;;;;;;4.63;1.33;;;18.80;63.20;;;;;;5065535;28;20020;-68
2022/09/14 01:54:16;;;;;;;4.88;1.35;;;18.80;63.40;;;;;;5068061;28;20029;-68
2022/09/14 01:56:52;;;;;;;6.20;1.27;;;18.80;63.30;;;;;;5093242;28;20046;-67
2022/09/14 01:59:39;;;;;;;8.00;1.73;;;18.80;63.40;;;;;;5061143;28;20028;-67
2022/09/14 02:02:20;;;;;;;4.63;1.15;;;18.80;63.40;;;;;;5094898;28;20027;-67
2022/09/14 02:04:52;;;;;;;5.03;1.20;;;18.80;63.40;;;;;;5077040;28;20122;-67
2022/09/14 02:07:18;;;;;;;3.40;1.27;;;18.70;63.40;;;;;;5073975;28;20099;-67
2022/09/14 02:09:46;;;;;;;4.93;1.50;;;18.80;63.50;;;;;;5094933;28;20437;-67
2022/09/14 02:12:12;;;;;;;4.65;1.10;;;18.70;63.40;;;;;;5093498;28;20095;-68
2022/09/14 02:14:38;;;;;;;6.68;1.30;;;18.80;63.50;;;;;;5068768;28;20372;-67
2022/09/14 02:17:03;;;;;;;2.58;1.25;;;18.80;63.40;;;;;;5084795;28;20020;-68
2022/09/14 02:19:33;;;;;;;4.43;1.23;;;18.70;63.30;;;;;;5093650;28;20376;-68
2022/09/14 02:21:59;;;;;;;3.35;1.23;;;18.70;63.30;;;;;;5094893;28;20028;-68
2022/09/14 02:24:26;;;;;;;3.83;1.13;;;18.70;63.20;;;;;;5094353;28;20452;-67
2022/09/14 02:26:53;;;;;;;6.18;1.20;;;18.70;63.10;;;;;;5091924;28;20043;-67
2022/09/14 02:29:19;;;;;;;6.88;1.50;;;18.70;63.10;;;;;;5093957;28;20027;-67
2022/09/14 02:32:03;;;;;;;5.03;0.90;;;18.70;63.20;;;;;;5077401;28;20036;-68
2022/09/14 02:34:50;;;;;;;5.72;1.30;;;18.70;63.10;;;;;;5094140;28;20051;-68
2022/09/14 02:37:24;;;;;;;2.13;0.93;;;18.70;63.00;;;;;;5093875;28;20445;-68
2022/09/14 02:40:07;;;;;;;4.13;1.30;;;18.70;63.00;;;;;;5074678;28;20128;-68
2022/09/14 02:43:03;;;;;;;4.47;1.13;;;18.70;62.90;;;;;;5092324;28;20031;-68
2022/09/14 02:45:41;;;;;;;4.45;1.23;;;18.70;62.80;;;;;;5087718;28;20038;-68
2022/09/14 02:48:21;;;;;;;5.10;1.13;;;18.70;62.90;;;;;;5094594;28;20508;-68
2022/09/14 02:51:04;;;;;;;4.68;1.27;;;18.70;62.90;;;;;;5069328;28;20429;-68
2022/09/14 02:53:34;;;;;;;3.70;1.25;;;18.70;62.80;;;;;;5086885;28;20016;-68
2022/09/14 02:56:03;;;;;;;5.03;1.10;;;18.60;62.80;;;;;;5093462;28;20031;-68
2022/09/14 02:58:41;;;;;;;6.28;1.58;;;18.70;62.90;;;;;;5093292;28;20012;-68
2022/09/14 03:01:09;;;;;;;3.55;1.23;;;18.70;63.00;;;;;;5076798;28;20103;-67
2022/09/14 03:03:34;;;;;;;4.68;1.25;;;18.70;63.20;;;;;;5093267;28;20112;-68
2022/09/14 03:06:00;;;;;;;4.03;1.30;;;18.60;63.40;;;;;;5090125;28;20115;-68
2022/09/14 03:08:26;;;;;;;5.20;1.13;;;18.60;63.70;;;;;;5094418;28;20024;-68
2022/09/14 03:10:52;;;;;;;5.00;1.30;;;18.60;63.90;;;;;;5094094;28;20020;-68
2022/09/14 03:13:18;;;;;;;4.05;1.10;;;18.60;64.20;;;;;;5087703;28;20417;-67
2022/09/14 03:15:44;;;;;;;4.82;1.27;;;18.60;64.50;;;;;;5090408;28;20020;-68
2022/09/14 03:18:10;;;;;;;6.18;1.10;;;18.50;64.80;;;;;;5075854;28;20052;-68
2022/09/14 03:20:36;;;;;;;3.75;1.10;;;18.50;64.90;;;;;;5076240;28;20020;-67
2022/09/14 03:23:02;;;;;;;6.13;1.52;;;18.50;65.00;;;;;;5096224;28;20031;-67
2022/09/14 03:25:28;;;;;;;4.63;1.27;;;18.50;65.40;;;;;;5096473;28;20035;-68
2022/09/14 03:27:57;;;;;;;7.90;1.65;;;18.50;65.70;;;;;;5083410;28;20349;-67
2022/09/14 03:30:23;;;;;;;6.95;1.30;;;18.40;65.90;;;;;;5069459;28;20024;-68
2022/09/14 03:32:49;;;;;;;4.30;1.17;;;18.40;66.10;;;;;;5090418;28;20476;-68
2022/09/14 03:35:15;;;;;;;5.80;1.23;;;18.40;66.30;;;;;;5079185;28;20034;-68
2022/09/14 03:37:42;;;;;;;5.47;1.80;;;18.40;66.50;;;;;;5079769;28;20121;-67
2022/09/14 03:40:09;;;;;;;3.58;1.23;;;18.30;66.40;;;;;;5098145;28;20420;-67
2022/09/14 03:42:35;;;;;;;4.95;1.23;;;18.30;66.40;;;;;;5094059;28;20097;-68
2022/09/14 03:45:01;;;;;;;5.72;1.35;;;18.30;66.50;;;;;;5066978;28;20016;-67
2022/09/14 03:47:27;;;;;;;6.15;1.33;;;18.30;66.50;;;;;;5076433;28;20093;-67
2022/09/14 03:49:53;;;;;;;3.60;1.35;;;18.30;66.60;;;;;;5069642;28;20412;-67
2022/09/14 03:52:19;;;;;;;4.18;1.30;;;18.30;66.50;;;;;;5092212;28;20028;-67
2022/09/14 03:54:44;;;;;;;4.90;1.60;;;18.30;66.70;;;;;;5094835;28;20032;-68
2022/09/14 03:57:10;;;;;;;5.93;1.42;;;18.20;66.80;;;;;;5074840;28;20463;-67
2022/09/14 03:59:36;;;;;;;3.55;1.15;;;18.20;66.70;;;;;;5064839;28;20043;-67
2022/09/14 04:02:02;;;;;;;3.78;1.20;;;18.20;66.70;;;;;;5070004;28;20036;-67
2022/09/14 04:04:28;;;;;;;4.43;1.17;;;18.20;66.90;;;;;;5063783;28;20082;-68
2022/09/14 04:06:54;;;;;;;3.95;1.55;;;18.20;67.00;;;;;;5069928;28;20115;-67
2022/09/14 04:09:20;;;;;;;5.10;1.35;;;18.20;67.20;;;;;;5078600;28;20028;-68
2022/09/14 04:11:46;;;;;;;4.88;1.30;;;18.20;67.40;;;;;;5091792;28;20352;-68
2022/09/14 04:14:12;;;;;;;4.60;1.25;;;18.20;67.50;;;;;;5074286;28;20047;-67
2022/09/14 04:16:39;;;;;;;5.20;1.52;;;18.20;67.70;;;;;;5094626;28;20165;-68
2022/09/14 04:19:05;;;;;;;6.45;1.40;;;18.20;67.90;;;;;;5054949;28;20044;-68
2022/09/14 04:21:32;;;;;;;4.10;1.10;;;18.20;68.00;;;;;;5092073;28;20038;-68
2022/09/14 04:23:58;;;;;;;3.42;1.40;;;18.20;68.00;;;;;;5068402;28;20044;-67
2022/09/14 04:26:28;;;;;;;5.97;1.42;;;18.20;68.10;;;;;;5093056;28;20035;-67
2022/09/14 04:28:54;;;;;;;3.25;1.00;;;18.20;68.20;;;;;;5091350;28;20032;-67
2022/09/14 04:31:20;;;;;;;4.32;1.30;;;18.10;68.20;;;;;;5075254;28;20035;-68
2022/09/14 04:33:49;;;;;;;4.70;1.20;;;18.10;68.30;;;;;;5090961;28;20035;-67
2022/09/14 04:36:18;;;;;;;5.53;1.33;;;18.10;68.40;;;;;;5076740;28;20035;-68
2022/09/14 04:38:44;;;;;;;6.45;1.20;;;18.10;68.40;;;;;;5077148;28;20524;-68
2022/09/14 04:41:15;;;;;;;3.28;1.25;;;18.10;68.50;;;;;;5087053;28;20107;-68
2022/09/14 04:43:42;;;;;;;5.63;1.33;;;18.10;68.60;;;;;;5070367;28;20094;-68
2022/09/14 04:46:11;;;;;;;3.72;1.20;;;18.10;68.70;;;;;;5088652;28;20514;-68
2022/09/14 04:48:37;;;;;;;3.33;1.25;;;18.00;68.60;;;;;;5076933;28;20024;-68
2022/09/14 04:51:03;;;;;;;2.95;1.30;;;18.00;68.70;;;;;;5088131;28;20081;-68
2022/09/14 04:53:31;;;;;;;6.50;1.50;;;18.00;68.70;;;;;;5084911;28;20405;-68
2022/09/14 04:56:06;;;;;;;7.97;1.40;;;18.00;68.70;;;;;;5088672;28;20020;-68
2022/09/14 04:58:33;;;;;;;5.15;1.25;;;18.00;68.90;;;;;;5088944;28;20034;-67
2022/09/14 05:01:10;;;;;;;4.28;1.20;;;18.00;69.00;;;;;;5082674;28;20048;-67
2022/09/14 05:03:40;;;;;;;6.10;1.52;;;18.00;68.90;;;;;;5089885;28;20136;-67
2022/09/14 05:06:14;;;;;;;4.95;1.20;;;18.00;68.90;;;;;;5093410;28;20028;-68
2022/09/14 05:08:40;;;;;;;7.25;1.60;;;18.00;69.00;;;;;;5089047;28;20167;-68
2022/09/14 05:11:07;;;;;;;4.18;1.35;;;17.90;69.20;;;;;;5072804;28;20024;-67
2022/09/14 05:13:33;;;;;;;3.20;1.20;;;17.90;69.30;;;;;;5077700;28;20040;-68
2022/09/14 05:16:17;;;;;;;4.75;1.58;;;17.90;69.40;;;;;;5089675;28;20032;-68
2022/09/14 05:18:44;;;;;;;3.95;1.30;;;17.90;69.50;;;;;;5085859;28;20052;-68
2022/09/14 05:21:13;;;;;;;4.85;1.52;;;17.90;69.50;;;;;;5087752;28;20067;-67
2022/09/14 05:23:39;;;;;;;6.55;1.30;;;18.00;69.70;;;;;;5091089;28;20056;-67
2022/09/14 05:26:05;;;;;;;7.55;1.65;;;17.90;69.70;;;;;;5070233;28;20031;-68
2022/09/14 05:28:32;;;;;;;5.18;1.70;;;17.90;69.90;;;;;;5077940;28;20028;-68
2022/09/14 05:30:58;;;;;;;4.20;1.48;;;17.90;69.90;;;;;;5096064;28;20035;-68
2022/09/14 05:33:23;;;;;;;5.38;1.80;;;17.90;70.00;;;;;;5095641;28;20028;-68
2022/09/14 05:35:51;;;;;;;4.00;1.35;;;17.90;70.10;;;;;;5090721;28;20027;-68
2022/09/14 05:38:16;;;;;;;5.70;1.60;;;17.90;70.30;;;;;;5095587;28;20024;-68
2022/09/14 05:40:42;;;;;;;4.80;1.30;;;17.90;70.40;;;;;;5058196;28;20024;-68
2022/09/14 05:43:08;;;;;;;4.60;1.45;;;17.90;70.40;;;;;;5072732;28;20032;-68
2022/09/14 05:45:34;;;;;;;4.90;1.67;;;17.90;70.50;;;;;;5087675;28;20104;-68
2022/09/14 05:48:03;;;;;;;3.72;1.40;;;17.90;70.60;;;;;;5055578;28;20181;-69
2022/09/14 05:50:29;;;;;;;5.28;1.63;;;17.90;70.60;;;;;;5077316;28;20028;-68
2022/09/14 05:52:55;;;;;;;5.50;1.50;;;17.90;70.60;;;;;;5077246;28;20326;-67
2022/09/14 05:55:21;;;;;;;5.35;1.50;;;17.90;70.60;;;;;;5077818;28;20043;-68
2022/09/14 05:57:50;;;;;;;7.30;1.70;;;17.90;70.60;;;;;;5058625;28;20025;-68
2022/09/14 06:00:17;;;;;;;4.50;1.58;;;17.90;70.60;;;;;;5059876;28;20035;-69
2022/09/14 06:02:47;;;;;;;5.90;1.92;;;17.90;70.60;;;;;;5092920;28;20028;-68
2022/09/14 06:05:13;;;;;;;9.40;1.83;;;17.90;70.60;;;;;;5093592;28;20023;-69
2022/09/14 06:07:39;;;;;;;4.97;1.50;;;17.90;70.70;;;;;;5093162;28;20365;-68
2022/09/14 06:10:05;;;;;;;4.65;1.70;;;17.90;70.90;;;;;;5093655;28;20024;-68
2022/09/14 06:12:30;;;;;;;6.72;1.60;;;17.90;71.10;;;;;;5060546;28;20306;-68
2022/09/14 06:14:56;;;;;;;4.57;1.45;;;17.90;71.40;;;;;;5092804;28;20028;-67
2022/09/14 06:17:22;;;;;;;5.72;1.60;;;17.90;71.60;;;;;;5092383;28;20499;-67
2022/09/14 06:19:47;;;;;;;7.47;1.80;;;17.90;71.80;;;;;;5075360;28;20078;-67
2022/09/14 06:22:13;;;;;;;4.97;1.60;;;17.90;71.90;;;;;;5076446;28;20024;-68
2022/09/14 06:24:38;;;;;;;6.43;1.58;;;17.80;72.00;;;;;;5054444;28;20021;-68
2022/09/14 06:27:07;;;;;;;5.57;1.50;;;17.90;72.20;;;;;;5056672;28;20032;-67
2022/09/14 06:29:33;;;;;;;5.18;1.50;;;17.90;72.30;;;;;;5076951;28;20488;-67
2022/09/14 06:31:59;;;;;;;5.13;1.58;;;17.90;72.30;;;;;;5071471;28;20116;-67
2022/09/14 06:34:24;;;;;;;5.43;1.60;;;17.90;72.30;;;;;;5079298;28;20357;-69
2022/09/14 06:36:50;;;;;;;7.78;1.67;;;17.90;72.20;;;;;;5093878;28;20448;-69
2022/09/14 06:39:16;;;;;;;5.07;1.77;;;17.90;72.10;;;;;;5072030;28;20085;-70
2022/09/14 06:41:42;;;;;;;6.57;1.80;;;17.90;72.20;;;;;;5083159;28;20391;-69
2022/09/14 06:44:17;;;;;;;4.32;1.25;;;17.90;72.30;;;;;;5074060;28;20062;-68
2022/09/14 06:46:43;;;;;;;6.32;2.08;;;17.90;72.30;;;;;;5094658;28;20397;-68
2022/09/14 06:49:16;;;;;;;6.28;1.80;;;17.90;72.30;;;;;;5092201;28;20024;-69
2022/09/14 06:51:44;;;;;;;6.38;1.60;;;17.90;72.50;;;;;;5092245;28;20369;-69
2022/09/14 06:54:12;;;;;;;8.38;2.00;;;17.90;72.50;;;;;;5076500;28;20036;-69
2022/09/14 06:56:40;;;;;;;5.90;1.75;;;17.80;72.60;;;;;;5076577;28;20028;-69
2022/09/14 06:59:07;;;;;;;6.80;1.67;;;17.90;72.70;;;;;;5076514;28;20074;-68
2022/09/14 07:01:34;;;;;;;8.50;1.75;;;17.90;72.50;;;;;;5090784;28;20433;-68
2022/09/14 07:04:00;;;;;;;5.25;1.55;;;17.90;72.40;;;;;;5094531;28;20031;-68
2022/09/14 07:06:29;;;;;;;7.13;1.80;;;17.90;72.30;;;;;;5081429;28;20032;-69
2022/09/14 07:08:55;;;;;;;4.32;1.50;;;17.90;72.20;;;;;;5062049;28;20042;-69
2022/09/14 07:11:24;;;;;;;5.50;1.77;;;17.90;72.20;;;;;;5073281;28;20024;-69
2022/09/14 07:13:53;;;;;;;4.63;1.85;;;17.90;72.30;;;;;;5069199;28;20032;-70
2022/09/14 07:16:19;;;;;;;6.13;1.80;;;17.90;72.40;;;;;;5075840;28;20360;-71
2022/09/14 07:18:45;;;;;;;5.82;1.83;;;17.90;72.50;;;;;;5073908;28;20370;-71
2022/09/14 07:21:14;;;;;;;5.20;1.90;;;17.90;72.50;;;;;;5067434;28;20028;-71
2022/09/14 07:23:42;;;;;;;7.32;1.95;;;17.90;72.60;;;;;;5075609;28;20056;-71
2022/09/14 07:26:12;;;;;;;6.35;2.10;;;17.90;72.60;;;;;;5074328;28;20085;-72
2022/09/14 07:28:39;;;;;;;7.90;2.10;;;17.90;72.60;;;;;;5063865;28;20033;-71
2022/09/14 07:31:13;;;;;;;5.18;1.70;;;18.00;72.50;;;;;;5090318;28;20025;-70
2022/09/14 07:33:39;;;;;;;8.15;2.03;;;18.00;72.40;;;;;;5087029;28;20364;-71
2022/09/14 07:36:09;;;;;;;5.50;1.80;;;18.00;72.40;;;;;;5076078;28;20031;-71
2022/09/14 07:38:35;;;;;;;6.27;2.20;;;18.00;72.50;;;;;;5089259;28;20028;-71
2022/09/14 07:41:01;;;;;;;3.67;1.65;;;18.00;72.50;;;;;;5071103;28;20081;-71
2022/09/14 07:43:27;;;;;;;5.25;1.90;;;18.00;72.50;;;;;;5063408;28;20059;-71
2022/09/14 07:45:53;;;;;;;5.50;1.92;;;17.90;72.50;;;;;;5086228;28;20029;-72
2022/09/14 07:48:19;;;;;;;5.65;2.03;;;18.00;72.60;;;;;;5091989;28;20016;-72
2022/09/14 07:50:46;;;;;;;5.78;1.85;;;18.00;72.70;;;;;;5076002;28;20441;-72
2022/09/14 07:53:12;;;;;;;4.97;1.70;;;18.00;72.80;;;;;;5083651;28;20091;-72
2022/09/14 07:55:39;;;;;;;5.35;1.67;;;18.00;72.80;;;;;;5079462;28;20048;-70
2022/09/14 07:58:06;;;;;;;8.70;2.13;;;18.10;72.80;;;;;;5089708;28;20032;-73
2022/09/14 08:00:32;;;;;;;6.22;1.90;;;18.00;72.50;;;;;;5069780;28;20091;-72
2022/09/14 08:02:58;;;;;;;2.78;1.35;;;18.10;72.30;;;;;;5085911;28;20393;-72
2022/09/14 08:05:24;;;;;;;8.07;1.88;;;18.10;72.30;;;;;;5090999;28;20157;-72
2022/09/14 08:07:54;;;;;;;5.32;1.95;;;18.10;72.20;;;;;;5085458;28;20047;-72
2022/09/14 08:10:20;;;;;;;5.10;1.95;;;18.20;72.20;;;;;;5079470;28;20028;-72
2022/09/14 08:12:50;;;;;;;5.22;1.65;;;18.20;72.00;;;;;;5074926;28;20051;-72
2022/09/14 08:15:16;;;;;;;7.13;2.15;;;18.10;71.80;;;;;;5093116;28;20036;-72
2022/09/14 08:17:42;;;;;;;6.18;1.52;;;18.10;71.80;;;;;;5090655;28;20117;-72
2022/09/14 08:20:08;;;;;;;7.40;1.90;;;18.10;71.80;;;;;;5070598;28;20078;-72
2022/09/14 08:22:33;;;;;;;7.15;1.90;;;18.20;72.00;;;;;;5088930;28;20074;-72
2022/09/14 08:24:59;;;;;;;4.90;1.83;;;18.10;72.10;;;;;;5085332;28;20032;-72
2022/09/14 08:27:24;;;;;;;5.03;1.60;;;18.10;72.20;;;;;;5091769;28;20040;-72
2022/09/14 08:29:50;;;;;;;4.45;1.67;;;18.10;72.30;;;;;;5088463;28;20041;-72
2022/09/14 08:32:16;;;;;;;5.55;1.73;;;18.10;72.30;;;;;;5077378;28;20059;-72
2022/09/14 08:34:41;;;;;;;5.18;1.55;;;18.10;72.20;;;;;;5079057;28;20369;-72
2022/09/14 08:37:09;;;;;;;4.07;1.55;;;18.10;72.10;;;;;;5091262;28;20032;-72
2022/09/14 08:39:34;;;;;;;5.78;1.83;;;18.10;72.10;;;;;;5076802;28;20036;-72
2022/09/14 08:42:01;;;;;;;5.68;1.65;;;18.10;72.00;;;;;;5092795;28;20040;-72
2022/09/14 08:44:40;;;;;;;4.25;1.38;;;18.10;72.60;;;;;;5092758;28;20415;-72
2022/09/14 08:47:11;;;;;;;6.72;1.65;;;18.10;72.10;;;;;;5081794;28;20028;-72
2022/09/14 08:49:43;;;;;;;5.10;1.60;;;18.10;72.10;;;;;;5094742;28;20035;-72
2022/09/14 08:52:14;;;;;;;6.32;1.55;;;18.10;72.10;;;;;;5094975;28;20165;-72
2022/09/14 08:54:40;;;;;;;6.20;1.52;;;18.10;72.30;;;;;;5094569;28;20040;-72
2022/09/14 08:57:15;;;;;;;4.80;1.60;;;18.10;72.40;;;;;;5087254;28;20027;-72
2022/09/14 08:59:45;;;;;;;4.95;1.38;;;18.10;72.40;;;;;;5088071;28;20048;-73
2022/09/14 09:02:39;;;;;;;6.93;1.67;;;18.10;72.30;;;;;;5081305;28;20452;-72
2022/09/14 09:05:34;;;;;;;4.20;1.45;;;18.10;72.10;;;;;;5080289;28;20033;-71
2022/09/14 09:08:12;;;;;;;5.30;1.30;;;18.10;72.10;;;;;;5090903;28;20036;-74
2022/09/14 09:10:39;;;;;;;6.38;1.63;;;18.10;72.00;;;;;;5084967;28;20107;-74
2022/09/14 09:13:08;;;;;;;5.97;1.83;;;18.20;72.00;;;;;;5069076;28;20043;-71
2022/09/14 09:15:48;;;;;;;3.75;1.17;;;18.20;72.00;;;;;;5086998;28;20051;-70
2022/09/14 09:18:38;;;;;;;6.93;2.00;;;18.20;72.00;;;;;;5070972;28;20078;-70
2022/09/14 09:21:10;;;;;;;7.70;1.50;;;18.30;72.00;;;;;;5094586;28;20076;-70
2022/09/14 09:23:36;;;;;;;5.05;1.70;;;18.30;71.90;;;;;;5068790;28;20033;-70
2022/09/14 09:26:06;;;;;;;5.28;1.48;;;18.30;71.90;;;;;;5083049;28;20360;-71
2022/09/14 09:28:33;;;;;;;6.45;1.55;;;18.30;72.00;;;;;;5058264;28;20078;-70
2022/09/14 09:31:05;;;;;;;5.85;1.73;;;18.30;72.00;;;;;;5086244;28;20025;-71
2022/09/14 09:33:52;;;;;;;3.88;1.50;;;18.40;72.20;;;;;;5067690;28;20101;-71
2022/09/14 09:36:21;;;;;;;5.13;1.60;;;18.40;72.00;;;;;;5072463;28;20020;-71
2022/09/14 09:38:46;;;;;;;3.35;1.20;;;18.40;71.90;;;;;;5056452;28;20415;-71
2022/09/14 09:41:20;;;;;;;6.55;1.42;;;18.40;71.80;;;;;;5055331;28;20364;-71
2022/09/14 09:44:13;;;;;;;6.40;1.77;;;18.40;72.60;;;;;;5073456;28;21263;-71
2022/09/14 09:47:00;;;;;;;4.78;1.33;;;18.40;71.80;;;;;;5085235;28;20044;-70
2022/09/14 09:49:31;;;;;;;5.53;1.40;;;18.40;71.60;;;;;;5055718;28;20091;-71
2022/09/14 09:52:14;;;;;;;6.18;1.70;;;18.40;71.60;;;;;;5090293;28;20410;-70
2022/09/14 09:54:47;;;;;;;3.90;1.48;;;18.40;71.40;;;;;;5091106;28;20036;-71
2022/09/14 09:57:32;;;;;;;3.53;1.60;;;18.40;71.40;;;;;;5084709;28;20437;-70
2022/09/14 10:00:28;;;;;;;6.00;1.85;;;18.40;71.30;;;;;;5072139;28;20032;-71
2022/09/14 10:02:56;;;;;;;6.28;1.75;;;18.40;71.40;;;;;;5059742;28;20040;-71
2022/09/14 10:05:31;;;;;;;5.80;1.40;;;18.40;71.40;;;;;;5078666;28;20020;-70
2022/09/14 10:08:02;;;;;;;6.82;1.75;;;18.40;71.50;;;;;;5085283;28;20036;-70
2022/09/14 10:10:34;;;;;;;7.25;1.95;;;18.40;71.60;;;;;;5052615;28;20352;-70
2022/09/14 10:13:01;;;;;;;4.75;1.65;;;18.40;71.60;;;;;;5087188;28;20028;-71
2022/09/14 10:15:30;;;;;;;4.30;1.70;;;18.40;71.50;;;;;;5069935;28;20119;-70
2022/09/14 10:18:15;;;;;;;3.72;1.50;;;18.40;71.50;;;;;;5082529;28;20059;-70
2022/09/14 10:21:04;;;;;;;5.07;1.83;;;18.40;71.60;;;;;;5066094;28;20032;-71
2022/09/14 10:23:34;;;;;;;4.32;1.80;;;18.40;71.60;;;;;;5056481;28;20089;-70
2022/09/14 10:26:12;;;;;;;5.65;1.83;;;18.40;71.50;;;;;;5046198;28;20025;-71
2022/09/14 10:28:46;;;;;;;7.28;2.20;;;18.40;71.50;;;;;;5072550;28;20024;-74
2022/09/14 10:31:18;;;;;;;6.40;2.08;;;18.40;71.50;;;;;;5066374;28;20039;-74
2022/09/14 10:33:50;;;;;;;4.45;1.75;;;18.40;71.50;;;;;;5065494;28;20027;-73
2022/09/14 10:36:28;;;;;;;9.40;2.10;;;18.50;71.50;;;;;;5087109;28;20486;-74
2022/09/14 10:39:18;;;;;;;6.43;2.10;;;18.50;71.40;;;;;;5066391;28;20391;-74
2022/09/14 10:42:10;;;;;;;5.65;2.08;;;18.50;71.30;;;;;;5088129;28;20036;-72
2022/09/14 10:44:38;;;;;;;7.22;2.63;;;18.50;71.10;;;;;;5082942;28;20024;-71
2022/09/14 10:47:42;;;;;;;8.60;2.92;;;18.60;71.20;;;;;;5086454;28;20081;-70
2022/09/14 10:50:10;;;;;;;8.82;2.95;;;18.60;71.10;;;;;;5064672;28;20038;-72
2022/09/14 10:53:05;;;;;;;6.50;2.53;;;18.60;71.00;;;;;;5094064;28;20032;-74
2022/09/14 10:56:04;;;;;;;5.47;2.60;;;18.70;71.00;;;;;;5064270;28;20059;-71
2022/09/14 10:58:56;;;;;;;7.43;2.17;;;18.70;71.00;;;;;;5081497;28;20032;-71
2022/09/14 11:02:01;;;;;;;7.40;2.35;;;18.80;71.00;;;;;;5090383;28;20040;-73
2022/09/14 11:05:08;;;;;;;7.40;3.13;;;18.80;70.90;;;;;;5086730;28;20032;-73
2022/09/14 11:07:48;;;;;;;9.00;3.28;;;18.70;70.70;;;;;;5075834;28;20040;-74
2022/09/14 11:10:14;;;;;;;8.40;3.00;;;18.70;70.80;;;;;;5086229;28;20028;-72
2022/09/14 11:13:00;;;;;;;8.50;3.13;;;18.80;70.90;;;;;;5081928;28;20028;-73
2022/09/14 11:15:51;;;;;;;7.18;2.90;;;18.80;70.90;;;;;;5075447;28;20047;-73
2022/09/14 11:18:31;;;;;;;7.70;3.25;;;18.80;70.80;;;;;;5079901;28;20067;-72
2022/09/14 11:21:16;;;;;;;5.63;2.75;;;18.80;70.80;;;;;;5089075;28;20318;-73
2022/09/14 11:23:51;;;;;;;8.90;3.08;;;18.80;70.70;;;;;;5063196;28;20024;-72
2022/09/14 11:26:30;;;;;;;6.47;2.97;;;18.80;70.60;;;;;;5081678;28;20036;-73
2022/09/14 11:29:22;;;;;;;6.43;2.38;;;18.80;70.50;;;;;;5083820;28;21302;-72
2022/09/14 11:32:04;;;;;;;7.25;2.53;;;18.80;70.50;;;;;;5089500;28;20028;-73
2022/09/14 11:34:36;;;;;;;6.28;2.70;;;18.80;70.50;;;;;;5087798;28;20059;-72
2022/09/14 11:37:12;;;;;;;6.93;2.72;;;18.80;70.50;;;;;;5076725;28;20043;-73
2022/09/14 11:39:57;;;;;;;8.48;3.30;;;18.80;70.40;;;;;;5075379;28;20036;-72
2022/09/14 11:42:39;;;;;;;7.35;3.50;;;18.80;70.30;;;;;;5060923;28;20449;-72
2022/09/14 11:45:27;;;;;;;7.22;2.72;;;18.80;70.20;;;;;;5077687;28;20338;-72
2022/09/14 11:48:06;;;;;;;8.13;2.72;;;18.80;70.10;;;;;;5077610;28;20033;-72
2022/09/14 11:50:33;;;;;;;7.78;2.75;;;18.80;70.10;;;;;;5067316;28;20036;-73
2022/09/14 11:53:10;;;;;;;9.15;3.50;;;18.90;70.20;;;;;;5097428;28;20035;-73
2022/09/14 11:55:47;;;;;;;8.63;3.50;;;18.80;70.00;;;;;;5073925;28;20109;-73
2022/09/14 11:58:28;;;;;;;10.23;3.40;;;18.80;70.10;;;;;;5089106;28;20085;-73
2022/09/14 12:01:04;;;;;;;7.40;3.28;;;18.80;70.10;;;;;;5069999;28;20028;-73
2022/09/14 12:03:51;;;;;;;9.68;3.15;;;18.90;70.20;;;;;;5085568;28;20064;-73
2022/09/14 12:06:29;;;;;;;8.32;3.95;;;18.90;70.10;;;;;;5093828;28;20028;-73
2022/09/14 12:09:20;;;;;;;6.78;3.08;;;18.90;70.10;;;;;;5049990;28;20028;-72
2022/09/14 12:11:53;;;;;;;8.52;3.40;;;18.90;70.10;;;;;;5093831;28;20036;-72
2022/09/14 12:14:34;;;;;;;7.35;3.15;;;19.00;70.20;;;;;;5091193;28;20111;-72
2022/09/14 12:17:22;;;;;;;7.80;3.80;;;19.00;70.10;;;;;;5072675;28;20050;-72
2022/09/14 12:19:54;;;;;;;7.55;3.00;;;19.00;70.00;;;;;;5095079;28;20036;-72
2022/09/14 12:22:33;;;;;;;7.68;3.45;;;19.10;70.10;;;;;;5078436;28;20315;-72
2022/09/14 12:25:02;;;;;;;8.30;3.40;;;19.10;70.00;;;;;;5073725;28;20074;-73
2022/09/14 12:27:34;;;;;;;8.43;3.25;;;19.10;70.10;;;;;;5075517;28;20028;-72
2022/09/14 12:30:00;;;;;;;7.18;3.10;;;19.20;70.10;;;;;;5084766;28;20043;-72
2022/09/14 12:32:43;;;;;;;10.30;3.45;;;19.20;70.00;;;;;;5098666;28;20421;-72
2022/09/14 12:35:33;;;;;;;9.82;3.83;;;19.30;69.90;;;;;;5061937;28;20020;-73
2022/09/14 12:38:28;;;;;;;7.10;2.90;;;19.30;69.70;;;;;;5073866;28;20044;-73
2022/09/14 12:40:58;;;;;;;8.10;3.20;;;19.30;69.70;;;;;;5042843;28;20309;-72
2022/09/14 12:43:36;;;;;;;7.35;3.03;;;19.30;69.80;;;;;;5065533;28;20071;-72
2022/09/14 12:46:18;;;;;;;7.03;2.92;;;19.30;69.70;;;;;;5062351;28;20038;-74
2022/09/14 12:48:47;;;;;;;7.20;2.78;;;19.40;69.70;;;;;;5077886;28;20097;-74
2022/09/14 12:51:21;;;;;;;7.07;2.97;;;19.40;69.60;;;;;;5096390;28;20043;-74
2022/09/14 12:54:15;;;;;;;7.72;3.13;;;19.40;69.50;;;;;;5056283;28;20024;-74
2022/09/14 12:57:05;;;;;;;8.43;2.78;;;19.50;69.40;;;;;;5047839;28;20517;-75
2022/09/14 13:00:03;;;;;;;5.90;2.63;;;19.50;69.30;;;;;;5088729;28;20028;-74
2022/09/14 13:02:51;;;;;;;6.38;2.42;;;19.50;69.30;;;;;;5086159;28;20424;-74
2022/09/14 13:05:22;;;;;;;6.82;2.55;;;19.50;69.30;;;;;;5084086;28;20055;-74
2022/09/14 13:07:49;;;;;;;7.90;2.55;;;19.50;69.20;;;;;;5081697;28;20061;-73
2022/09/14 13:10:37;;;;;;;5.43;2.30;;;19.60;69.30;;;;;;5089404;28;20433;-74
2022/09/14 13:13:12;;;;;;;6.63;2.65;;;19.60;69.10;;;;;;5090738;28;20028;-73
2022/09/14 13:15:55;;;;;;;8.90;2.58;;;19.60;69.00;;;;;;5061608;28;20372;-73